リオデジャネイロ/サントス・デュモン の空港の天気 - METARとTAF

サントス・デュモン空港 ( SBRJ / SDU ) - ブラジル リオデジャネイロ州リオデジャネイロ市
飛行場実況気象(Metar)
観測時間05/28 19:00 BRT (05/28 22:00 UTC)
風向・風速南東 2m/s
視程10km以上
天気現象
なし
気温24℃
湿度78%
気圧1014hPa
METARSBRJ 282200Z 14003KT CAVOK 24/20 Q1014
過去の天気等 Google飛行場航空写真 Wunderground天気予報

過去48時間のMETAR

飛行場予報(TAF)
発表時間: 5/28 12:00 BRT (5/28 15:00 UTC)
予報対象時間: 28日15時 BRT ~ 29日3時 BRT
風向・風速南南東 5m/s
視程10km以上
なし
28日18時 BRT ~ 28日20時 BRT に徐々に
風向・風速東北東 3m/s
TAF SBRJ 281500Z 2818/2906 16010KT CAVOK TX25/2818Z TN20/2906Z
BECMG 2821/2823 06005KT RMK PGU